ΕΜΥ, Εθνική Μετεωρολογική Υπηρεσία - Δελτία Καιρού, Προγνώσεις

ΑΕΡΟΝΑΥΤΙΛΙΑ

GREEK AIRPORTS CODES

TAF LGSK 250200Z 2503/2512 07012KT 9999 FEW025 BECMG 2506/2508 14010KT=

EUROPEAN AIRPORTS CODES

LFPO 250300Z 23012KT 200V260 8000 -RA BKN010 09/08 Q1008NOSIG=